createdAt,value
2022-08-05T00:00:31.808Z,90.25
2022-08-05T00:01:36.125Z,90.65
2022-08-05T00:02:31.988Z,90.45
2022-08-05T00:03:32.024Z,90.15
2022-08-05T00:04:32.126Z,89.75
2022-08-05T00:06:05.341Z,89.85
2022-08-05T00:06:36.050Z,90.15
2022-08-05T00:08:00.158Z,89.85
2022-08-05T00:08:35.506Z,89.75
2022-08-05T00:09:32.545Z,89.65
2022-08-05T00:10:32.660Z,89.75
2022-08-05T00:11:35.085Z,89.45
2022-08-05T00:12:32.834Z,89.45
2022-08-05T00:13:39.354Z,89.45
2022-08-05T00:14:33.005Z,89.85
2022-08-05T00:15:58.023Z,89.95
2022-08-05T00:16:35.711Z,89.95
2022-08-05T00:17:33.488Z,89.95
2022-08-05T00:18:33.335Z,90.05
2022-08-05T00:19:44.053Z,90.35
2022-08-05T00:20:33.529Z,90.15
2022-08-05T00:21:35.769Z,89.95
2022-08-05T00:22:33.650Z,89.85
2022-08-05T00:23:45.745Z,89.85
2022-08-05T00:24:33.827Z,89.95
2022-08-05T00:25:45.503Z,90.15
2022-08-05T00:26:34.010Z,90.15
2022-08-05T00:27:36.222Z,90.55
2022-08-05T00:28:34.155Z,90.65
2022-08-05T00:29:38.131Z,90.75
2022-08-05T00:30:34.345Z,90.84
2022-08-05T00:31:54.035Z,90.65
2022-08-05T00:32:34.473Z,90.49
2022-08-05T00:34:54.889Z,90.39
2022-08-05T00:35:10.391Z,90.49
2022-08-05T00:35:34.720Z,90.69
2022-08-05T00:37:08.986Z,90.39
2022-08-05T00:37:50.370Z,90.29
2022-08-05T00:38:35.008Z,90.09
2022-08-05T00:39:41.371Z,89.89
2022-08-05T00:40:35.195Z,89.79
2022-08-05T00:41:51.700Z,89.99
2022-08-05T00:42:35.362Z,90.09
2022-08-05T00:43:46.711Z,90.09
2022-08-05T00:44:35.521Z,89.89
2022-08-05T00:45:38.412Z,90.19
2022-08-05T00:46:42.586Z,90.39
2022-08-05T00:47:52.939Z,90.49
2022-08-05T00:48:35.838Z,90.49
2022-08-05T00:49:44.639Z,90.39
2022-08-05T00:50:36.002Z,90.49
2022-08-05T00:51:50.714Z,90.49
2022-08-05T00:52:36.157Z,90.59
2022-08-05T00:54:00.520Z,90.69
2022-08-05T00:54:36.333Z,90.99
2022-08-05T00:55:43.690Z,91.09
2022-08-05T00:56:36.513Z,91.09
2022-08-05T00:57:55.409Z,91.09
2022-08-05T00:58:36.955Z,90.79
2022-08-05T00:59:44.620Z,90.69
2022-08-05T01:00:36.917Z,90.53
2022-08-05T01:01:42.762Z,90.33
2022-08-05T01:02:37.023Z,90.13
2022-08-05T01:03:37.095Z,90.23
2022-08-05T01:04:37.185Z,90.53
2022-08-05T01:05:37.293Z,90.63
2022-08-05T01:06:37.336Z,90.63
2022-08-05T01:07:37.415Z,90.63
2022-08-05T01:08:42.853Z,90.63
2022-08-05T01:09:37.568Z,90.63
2022-08-05T01:10:37.670Z,90.73
2022-08-05T01:11:37.783Z,90.63
2022-08-05T01:12:37.782Z,90.44
2022-08-05T01:13:57.503Z,90.94
2022-08-05T01:14:37.947Z,90.94
2022-08-05T01:15:38.054Z,90.63
2022-08-05T01:16:38.111Z,90.44
2022-08-05T01:17:40.189Z,90.78
2022-08-05T01:18:38.267Z,90.78
2022-08-05T01:20:01.854Z,90.78
2022-08-05T01:20:38.481Z,90.67
2022-08-05T01:21:38.631Z,90.17
2022-08-05T01:22:38.618Z,90.48
2022-08-05T01:23:38.730Z,90.72
2022-08-05T01:24:38.793Z,91.12
2022-08-05T01:25:39.625Z,91.02
2022-08-05T01:26:38.931Z,91.12
2022-08-05T01:27:50.526Z,90.82
2022-08-05T01:28:39.535Z,91.12
2022-08-05T01:29:39.193Z,91.12
2022-08-05T01:30:39.272Z,90.62
2022-08-05T01:31:44.621Z,90.72
2022-08-05T01:32:39.430Z,90.72
2022-08-05T01:33:39.513Z,90.52
2022-08-05T01:34:39.591Z,90.62
2022-08-05T01:35:50.607Z,90.32
2022-08-05T01:36:42.316Z,90.12
2022-08-05T01:37:44.372Z,90.12
2022-08-05T01:38:39.934Z,90.12
2022-08-05T01:39:47.621Z,90.52
2022-08-05T01:40:41.983Z,90.02
2022-08-05T01:41:40.208Z,89.62
2022-08-05T01:42:40.778Z,90.16
2022-08-05T01:43:40.382Z,90.16
2022-08-05T01:44:40.446Z,90.86
2022-08-05T01:45:42.852Z,90.66
2022-08-05T01:46:42.599Z,90.77
2022-08-05T01:47:43.192Z,90.86
2022-08-05T01:48:40.764Z,90.26
2022-08-05T01:50:00.344Z,90.56
2022-08-05T01:50:40.947Z,90.46
2022-08-05T01:51:41.061Z,89.96
2022-08-05T01:52:41.116Z,89.46
2022-08-05T01:53:57.326Z,89.36
2022-08-05T01:54:45.928Z,89.16
2022-08-05T01:55:41.394Z,88.96
2022-08-05T01:58:11.869Z,88.80
2022-08-05T01:58:40.300Z,88.70
2022-08-05T01:58:45.729Z,88.60
2022-08-05T01:59:41.716Z,88.20
2022-08-05T02:00:41.801Z,88.50
2022-08-05T02:01:41.944Z,88.20
2022-08-05T02:02:46.499Z,88.50
2022-08-05T02:03:42.043Z,88.34
2022-08-05T02:04:42.116Z,88.50
2022-08-05T02:05:42.660Z,88.70
2022-08-05T02:06:42.279Z,87.70
2022-08-05T02:07:42.334Z,87.90
2022-08-05T02:08:54.937Z,87.90
2022-08-05T02:09:42.514Z,88.20
2022-08-05T02:10:42.574Z,87.60
2022-08-05T02:11:48.028Z,87.54
2022-08-05T02:12:42.752Z,87.30
2022-08-05T02:13:53.834Z,87.04
2022-08-05T02:14:43.250Z,86.94
2022-08-05T02:15:43.004Z,87.04
2022-08-05T02:16:44.057Z,87.14
2022-08-05T02:18:28.746Z,87.54
2022-08-05T02:18:43.252Z,87.44
2022-08-05T02:19:47.668Z,87.24
2022-08-05T02:20:43.398Z,86.84
2022-08-05T02:21:46.806Z,87.04
2022-08-05T02:22:43.542Z,87.38
2022-08-05T02:23:43.623Z,87.68
2022-08-05T02:24:43.694Z,87.98
2022-08-05T02:25:50.066Z,87.88
2022-08-05T02:26:54.051Z,87.78
2022-08-05T02:27:58.345Z,87.48
2022-08-05T02:28:45.817Z,87.98
2022-08-05T02:29:59.966Z,87.58
2022-08-05T02:30:51.649Z,87.68
2022-08-05T02:31:44.329Z,87.88
2022-08-05T02:32:44.388Z,87.38
2022-08-05T02:33:44.479Z,87.88
2022-08-05T02:34:44.561Z,87.68
2022-08-05T02:35:57.527Z,87.88
2022-08-05T02:36:44.770Z,87.78
2022-08-05T02:37:47.814Z,87.98
2022-08-05T02:38:44.914Z,87.68
2022-08-05T02:39:47.674Z,87.48
2022-08-05T02:40:45.027Z,88.09
2022-08-05T02:42:00.457Z,87.88
2022-08-05T02:42:45.187Z,87.68
2022-08-05T02:44:05.998Z,87.88
2022-08-05T02:44:45.377Z,88.12
2022-08-05T02:45:52.164Z,88.32
2022-08-05T02:46:58.312Z,88.23
2022-08-05T02:48:06.480Z,87.93
2022-08-05T02:48:45.712Z,88.09
2022-08-05T02:49:45.792Z,87.98
2022-08-05T02:50:45.873Z,87.78
2022-08-05T02:52:03.393Z,87.98
2022-08-05T02:52:46.036Z,87.58
2022-08-05T02:53:46.110Z,87.88
2022-08-05T02:54:50.713Z,87.88
2022-08-05T02:55:54.629Z,87.88
2022-08-05T02:56:46.355Z,87.98
2022-08-05T02:58:10.505Z,88.44
2022-08-05T02:58:51.205Z,88.44
2022-08-05T02:59:48.101Z,88.64
2022-08-05T03:00:46.640Z,88.54
2022-08-05T03:01:46.828Z,88.44
2022-08-05T03:02:46.825Z,88.44
2022-08-05T03:04:02.921Z,88.24
2022-08-05T03:04:46.977Z,88.34
2022-08-05T03:06:56.160Z,87.94
2022-08-05T03:07:03.570Z,88.04
2022-08-05T03:08:04.620Z,87.94
2022-08-05T03:08:47.290Z,88.10
2022-08-05T03:09:51.431Z,88.30
2022-08-05T03:11:53.096Z,88.10
2022-08-05T03:12:00.371Z,87.80
2022-08-05T03:12:47.602Z,87.64
2022-08-05T03:13:52.120Z,87.74
2022-08-05T03:14:48.170Z,88.04
2022-08-05T03:15:47.815Z,88.14
2022-08-05T03:16:47.868Z,88.70
2022-08-05T03:17:47.971Z,88.50
2022-08-05T03:18:48.033Z,88.30
2022-08-05T03:19:48.115Z,88.20
2022-08-05T03:20:48.635Z,88.60
2022-08-05T03:21:49.283Z,89.00
2022-08-05T03:22:50.009Z,89.11
2022-08-05T03:23:48.437Z,88.90
2022-08-05T03:24:50.759Z,89.40
2022-08-05T03:26:30.164Z,89.81
2022-08-05T03:26:49.371Z,89.34
2022-08-05T03:28:00.255Z,89.25
2022-08-05T03:28:48.817Z,89.95
2022-08-05T03:30:07.660Z,90.35
2022-08-05T03:30:48.949Z,90.29
2022-08-05T03:31:56.590Z,90.39
2022-08-05T03:32:49.112Z,90.39
2022-08-05T03:33:52.811Z,90.49
2022-08-05T03:34:50.986Z,90.89
2022-08-05T03:35:49.868Z,90.89
2022-08-05T03:36:49.393Z,90.99
2022-08-05T03:37:49.486Z,91.19
2022-08-05T03:38:53.214Z,91.19
2022-08-05T03:39:59.187Z,91.09
2022-08-05T03:40:49.709Z,90.99
2022-08-05T03:41:49.759Z,90.99
2022-08-05T03:42:52.052Z,91.60
2022-08-05T03:44:09.534Z,91.45
2022-08-05T03:44:50.037Z,91.75
2022-08-05T03:45:58.339Z,91.65
2022-08-05T03:46:50.212Z,91.65
2022-08-05T03:47:50.299Z,91.85
2022-08-05T03:48:50.337Z,91.55
2022-08-05T03:49:51.425Z,90.29
2022-08-05T03:50:50.495Z,90.49
2022-08-05T03:52:38.381Z,90.64
2022-08-05T03:56:01.184Z,90.94
2022-08-05T03:56:18.055Z,91.89
2022-08-05T03:56:35.789Z,91.80
2022-08-05T03:57:42.388Z,91.80
2022-08-05T03:58:27.133Z,91.69
2022-08-05T03:59:24.611Z,91.60
2022-08-05T04:00:24.111Z,91.50
2022-08-05T04:01:24.148Z,91.50
2022-08-05T04:02:38.425Z,91.60
2022-08-05T04:03:28.509Z,91.30
2022-08-05T04:04:26.503Z,91.30
2022-08-05T04:05:24.389Z,91.80
2022-08-05T04:06:24.467Z,91.35
2022-08-05T04:07:24.895Z,90.95
2022-08-05T04:08:34.809Z,89.99
2022-08-05T04:09:26.422Z,90.99
2022-08-05T04:10:24.812Z,91.44
2022-08-05T04:11:24.877Z,91.44
2022-08-05T04:12:25.003Z,92.14
2022-08-05T04:13:25.031Z,92.54
2022-08-05T04:14:30.404Z,92.84
2022-08-05T04:15:25.201Z,92.44
2022-08-05T04:16:32.441Z,92.44
2022-08-05T04:17:25.641Z,92.84
2022-08-05T04:18:25.712Z,92.94
2022-08-05T04:19:25.475Z,92.80
2022-08-05T04:20:25.589Z,92.30
2022-08-05T04:22:08.671Z,91.89
2022-08-05T04:22:26.596Z,91.30
2022-08-05T04:23:58.388Z,91.50
2022-08-05T04:24:25.935Z,91.39
2022-08-05T04:25:56.577Z,91.03
2022-08-05T04:26:26.087Z,92.03
2022-08-05T04:27:33.316Z,93.33
2022-08-05T04:28:30.562Z,94.28
2022-08-05T04:29:27.096Z,94.79
2022-08-05T04:30:26.704Z,94.59
2022-08-05T04:31:27.702Z,94.59
2022-08-05T04:32:33.294Z,94.48
2022-08-05T04:33:54.669Z,94.54
2022-08-05T04:34:32.399Z,94.84
2022-08-05T04:35:26.865Z,94.04
2022-08-05T04:36:45.510Z,93.84
2022-08-05T04:38:00.672Z,93.84
2022-08-05T04:38:39.849Z,93.54
2022-08-05T04:39:27.706Z,93.54
2022-08-05T04:40:27.253Z,93.89
2022-08-05T04:41:36.641Z,93.69
2022-08-05T04:42:27.397Z,92.69
2022-08-05T04:43:27.465Z,92.83
2022-08-05T04:44:30.275Z,93.13
2022-08-05T04:45:31.378Z,93.43
2022-08-05T04:46:28.680Z,93.33
2022-08-05T04:47:27.826Z,93.54
2022-08-05T04:48:28.462Z,93.43
2022-08-05T04:50:01.353Z,93.33
2022-08-05T04:50:37.386Z,93.39
2022-08-05T04:51:30.301Z,93.69
2022-08-05T04:52:28.420Z,93.69
2022-08-05T04:53:28.288Z,93.89
2022-08-05T04:54:28.375Z,94.09
2022-08-05T04:55:49.789Z,94.09
2022-08-05T04:56:37.279Z,93.69
2022-08-05T04:57:29.619Z,93.59
2022-08-05T04:58:28.706Z,93.69
2022-08-05T04:59:38.891Z,93.59
2022-08-05T05:00:28.850Z,93.59
2022-08-05T05:02:05.574Z,94.09
2022-08-05T05:02:37.540Z,94.25
2022-08-05T05:03:29.046Z,93.65
2022-08-05T05:04:29.131Z,93.24
2022-08-05T05:05:29.480Z,93.15
2022-08-05T05:06:36.100Z,92.94
2022-08-05T05:07:32.281Z,93.24
2022-08-05T05:08:30.445Z,92.84
2022-08-05T05:09:29.531Z,93.35
2022-08-05T05:10:29.877Z,93.44
2022-08-05T05:11:41.403Z,93.24
2022-08-05T05:12:29.790Z,93.15
2022-08-05T05:13:32.357Z,92.74
2022-08-05T05:14:31.844Z,93.35
2022-08-05T05:15:56.819Z,93.65
2022-08-05T05:16:30.388Z,93.55
2022-08-05T05:17:56.694Z,93.44
2022-08-05T05:18:33.326Z,93.65
2022-08-05T05:19:36.933Z,93.24
2022-08-05T05:20:30.458Z,93.35
2022-08-05T05:21:30.462Z,93.04
2022-08-05T05:22:30.565Z,93.55
2022-08-05T05:23:39.023Z,93.35
2022-08-05T05:24:32.776Z,93.15
2022-08-05T05:25:40.246Z,93.44
2022-08-05T05:26:32.945Z,93.55
2022-08-05T05:27:44.309Z,93.85
2022-08-05T05:28:31.077Z,93.44
2022-08-05T05:30:03.519Z,93.55
2022-08-05T05:30:33.354Z,93.24
2022-08-05T05:32:12.412Z,92.94
2022-08-05T05:33:16.918Z,92.84
2022-08-05T05:34:10.318Z,92.84
2022-08-05T05:35:10.373Z,92.65
2022-08-05T05:36:10.471Z,92.80
2022-08-05T05:37:10.535Z,92.74
2022-08-05T05:38:13.451Z,92.80
2022-08-05T05:39:10.685Z,92.70
2022-08-05T05:40:10.764Z,92.60
2022-08-05T05:41:10.864Z,92.80
2022-08-05T05:42:10.929Z,92.90
2022-08-05T05:43:11.010Z,92.74
2022-08-05T05:44:35.761Z,92.94
2022-08-05T05:45:11.162Z,93.00
2022-08-05T05:46:15.834Z,93.00
2022-08-05T05:47:21.362Z,92.90
2022-08-05T05:48:11.385Z,92.70
2022-08-05T05:49:22.345Z,93.00
2022-08-05T05:50:11.519Z,93.00
2022-08-05T05:51:15.061Z,92.80
2022-08-05T05:52:26.373Z,92.90
2022-08-05T05:53:22.168Z,93.20
2022-08-05T05:54:11.833Z,92.90
2022-08-05T05:55:13.359Z,92.40
2022-08-05T05:56:11.990Z,92.30
2022-08-05T05:57:24.265Z,92.50
2022-08-05T05:58:12.108Z,92.40
2022-08-05T05:59:12.167Z,92.25
2022-08-05T06:00:12.259Z,91.96
2022-08-05T06:01:15.231Z,92.25
2022-08-05T06:02:12.410Z,91.65
2022-08-05T06:03:40.131Z,91.35
2022-08-05T06:04:13.072Z,91.31
2022-08-05T06:05:16.643Z,91.01
2022-08-05T06:06:12.837Z,90.41
2022-08-05T06:07:12.763Z,90.11
2022-08-05T06:08:12.867Z,89.66
2022-08-05T06:09:17.513Z,89.36
2022-08-05T06:10:13.034Z,88.92
2022-08-05T06:11:13.445Z,88.52
2022-08-05T06:12:13.205Z,87.82
2022-08-05T06:13:13.292Z,87.82
2022-08-05T06:14:13.375Z,88.21
2022-08-05T06:15:23.610Z,87.82
2022-08-05T06:16:28.884Z,87.92
2022-08-05T06:17:22.346Z,88.18
2022-08-05T06:18:13.716Z,88.57
2022-08-05T06:19:13.782Z,88.07
2022-08-05T06:20:18.911Z,87.37
2022-08-05T06:21:18.460Z,87.18
2022-08-05T06:22:14.016Z,87.18
2022-08-05T06:23:14.081Z,87.27
2022-08-05T06:24:14.722Z,87.27
2022-08-05T06:25:59.279Z,87.57
2022-08-05T06:26:20.710Z,87.37
2022-08-05T06:28:08.820Z,87.68
2022-08-05T06:28:21.049Z,87.87
2022-08-05T06:29:23.667Z,87.77
2022-08-05T06:30:17.653Z,87.77
2022-08-05T06:31:18.035Z,87.98
2022-08-05T06:32:25.465Z,87.98
2022-08-05T06:33:19.080Z,87.68
2022-08-05T06:34:14.946Z,86.98
2022-08-05T06:35:21.791Z,87.07
2022-08-05T06:36:15.122Z,87.41
2022-08-05T06:37:15.163Z,87.71
2022-08-05T06:38:15.266Z,88.12
2022-08-05T06:39:15.381Z,88.21
2022-08-05T06:40:18.473Z,88.32
2022-08-05T06:41:15.500Z,88.52
2022-08-05T06:42:15.547Z,88.82
2022-08-05T06:43:57.440Z,89.16
2022-08-05T06:44:15.727Z,89.66
2022-08-05T06:45:20.664Z,89.56
2022-08-05T06:46:15.904Z,89.76
2022-08-05T06:47:29.982Z,89.96
2022-08-05T06:48:53.712Z,89.56
2022-08-05T06:49:16.092Z,89.16
2022-08-05T06:50:17.238Z,89.66
2022-08-05T06:51:25.232Z,90.16
2022-08-05T06:52:37.052Z,89.82
2022-08-05T06:53:22.446Z,90.02
2022-08-05T06:54:19.014Z,89.92
2022-08-05T06:55:16.547Z,90.02
2022-08-05T06:56:26.558Z,89.92
2022-08-05T06:58:02.557Z,89.56
2022-08-05T06:58:20.177Z,90.16
2022-08-05T06:59:16.875Z,90.36
2022-08-05T07:00:22.170Z,90.36
2022-08-05T07:01:20.853Z,90.46
2022-08-05T07:02:17.119Z,90.46
2022-08-05T07:03:17.217Z,90.72
2022-08-05T07:04:19.249Z,90.52
2022-08-05T07:05:19.578Z,90.52
2022-08-05T07:06:17.451Z,90.42
2022-08-05T07:07:35.591Z,90.42
2022-08-05T07:08:17.595Z,90.42
2022-08-05T07:09:17.666Z,90.02
2022-08-05T07:10:17.734Z,90.72
2022-08-05T07:11:17.836Z,90.52
2022-08-05T07:12:17.890Z,90.62
2022-08-05T07:13:17.967Z,90.62
2022-08-05T07:14:29.029Z,90.42
2022-08-05T07:15:34.620Z,90.12
2022-08-05T07:17:55.950Z,90.12
2022-08-05T07:18:09.338Z,89.72
2022-08-05T07:18:28.910Z,89.72
2022-08-05T07:19:53.804Z,89.52
2022-08-05T07:20:38.697Z,89.42
2022-08-05T07:21:25.972Z,89.52
2022-08-05T07:22:18.713Z,89.12
2022-08-05T07:23:25.916Z,89.52
2022-08-05T07:24:18.878Z,89.62
2022-08-05T07:25:55.464Z,89.42
2022-08-05T07:26:22.703Z,89.22
2022-08-05T07:27:19.173Z,89.42
2022-08-05T07:28:19.180Z,89.52
2022-08-05T07:29:19.280Z,89.52
2022-08-05T07:30:31.869Z,89.62
2022-08-05T07:31:19.456Z,89.62
2022-08-05T07:32:26.116Z,89.82
2022-08-05T07:33:19.585Z,89.62
2022-08-05T07:34:21.158Z,89.42
2022-08-05T07:36:04.716Z,89.07
2022-08-05T07:36:24.954Z,89.28
2022-08-05T07:37:19.915Z,89.18
2022-08-05T07:38:32.957Z,89.18
2022-08-05T07:39:50.342Z,88.98
2022-08-05T07:40:32.847Z,88.98
2022-08-05T07:42:09.499Z,88.57
2022-08-05T07:42:33.579Z,88.53
2022-08-05T07:43:21.153Z,88.53
2022-08-05T07:44:20.435Z,88.03
2022-08-05T07:45:57.852Z,88.33
2022-08-05T07:46:25.182Z,88.13
2022-08-05T07:47:20.764Z,87.43
2022-08-05T07:49:02.709Z,88.03
2022-08-05T07:49:20.823Z,88.13
2022-08-05T07:50:23.700Z,87.98
2022-08-05T07:51:23.814Z,88.18
2022-08-05T07:52:21.070Z,87.77
2022-08-05T07:53:21.119Z,88.18
2022-08-05T07:54:21.208Z,88.28
2022-08-05T07:56:04.731Z,88.37
2022-08-05T07:57:02.421Z,87.77
2022-08-05T07:57:55.247Z,87.53
2022-08-05T07:58:57.374Z,87.63
2022-08-05T07:59:21.875Z,87.63
2022-08-05T08:00:21.673Z,87.23
2022-08-05T08:01:21.989Z,87.09
2022-08-05T08:02:21.831Z,86.79
2022-08-05T08:03:22.146Z,86.39
2022-08-05T08:04:34.376Z,86.19
2022-08-05T08:05:22.086Z,85.79
2022-08-05T08:06:22.138Z,85.99
2022-08-05T08:07:23.015Z,86.29
2022-08-05T08:08:22.309Z,86.69
2022-08-05T08:09:22.378Z,87.19
2022-08-05T08:10:22.426Z,87.23
2022-08-05T08:11:27.585Z,86.73
2022-08-05T08:12:33.476Z,86.63
2022-08-05T08:13:29.394Z,86.23
2022-08-05T08:14:22.817Z,86.03
2022-08-05T08:15:37.359Z,85.83
2022-08-05T08:16:54.425Z,86.23
2022-08-05T08:17:23.222Z,86.83
2022-08-05T08:18:23.074Z,86.73
2022-08-05T08:20:10.277Z,86.47
2022-08-05T08:21:02.872Z,86.98
2022-08-05T08:21:23.287Z,86.68
2022-08-05T08:22:23.338Z,86.87
2022-08-05T08:24:01.005Z,86.68
2022-08-05T08:24:23.504Z,86.47
2022-08-05T08:25:26.527Z,86.27
2022-08-05T08:26:26.840Z,86.68
2022-08-05T08:27:35.776Z,86.63
2022-08-05T08:28:35.758Z,86.53
2022-08-05T08:30:06.037Z,86.33
2022-08-05T08:30:32.521Z,86.33
2022-08-05T08:31:24.116Z,86.63
2022-08-05T08:32:27.793Z,86.68
2022-08-05T08:33:24.280Z,86.77
2022-08-05T08:34:30.237Z,86.98
2022-08-05T08:35:26.738Z,86.47
2022-08-05T08:36:37.490Z,86.77
2022-08-05T08:37:27.835Z,86.98
2022-08-05T08:38:35.544Z,87.27
2022-08-05T08:39:24.907Z,87.27
2022-08-05T08:40:24.797Z,87.27
2022-08-05T08:41:25.938Z,87.48
2022-08-05T08:42:34.305Z,87.18
2022-08-05T08:45:20.946Z,87.71
2022-08-05T08:45:30.778Z,87.48
2022-08-05T08:45:36.192Z,87.52
2022-08-05T08:46:36.279Z,87.52
2022-08-05T08:48:06.179Z,87.32
2022-08-05T08:49:02.987Z,87.41
2022-08-05T08:50:22.856Z,87.82
2022-08-05T08:51:21.920Z,87.32
2022-08-05T08:52:06.045Z,87.52
2022-08-05T08:52:36.751Z,87.52
2022-08-05T08:53:36.861Z,88.21
2022-08-05T08:54:36.901Z,88.21
2022-08-05T08:56:04.146Z,88.62
2022-08-05T08:56:37.072Z,88.92
2022-08-05T08:57:42.268Z,89.16
2022-08-05T08:58:44.685Z,89.86
2022-08-05T08:59:37.337Z,89.86
2022-08-05T09:00:37.464Z,90.66
2022-08-05T09:01:37.483Z,91.11
2022-08-05T09:02:37.564Z,91.71
2022-08-05T09:03:45.025Z,91.71
2022-08-05T09:04:58.497Z,91.91
2022-08-05T09:05:38.269Z,91.61
2022-08-05T09:06:37.893Z,91.31
2022-08-05T09:07:39.855Z,91.01
2022-08-05T09:08:40.172Z,90.70
2022-08-05T09:09:38.157Z,90.46
2022-08-05T09:10:38.181Z,89.72
2022-08-05T09:11:50.853Z,88.87
2022-08-05T09:12:38.355Z,87.53
2022-08-05T09:14:00.824Z,86.69
2022-08-05T09:14:56.575Z,86.89
2022-08-05T09:15:38.588Z,86.21
2022-08-05T09:16:38.637Z,85.37
2022-08-05T09:17:42.985Z,83.77
2022-08-05T09:18:42.790Z,83.93
2022-08-05T09:19:55.165Z,82.69
2022-08-05T09:20:38.933Z,82.73
2022-08-05T09:22:23.267Z,83.17
2022-08-05T09:22:39.509Z,84.37
2022-08-05T09:23:43.536Z,84.31
2022-08-05T09:24:39.226Z,84.65
2022-08-05T09:26:01.503Z,85.15
2022-08-05T09:26:39.366Z,85.25
2022-08-05T09:28:03.961Z,85.25
2022-08-05T09:28:39.694Z,84.95
2022-08-05T09:29:47.717Z,84.95
2022-08-05T09:30:39.641Z,85.09
2022-08-05T09:32:40.002Z,84.95
2022-08-05T09:32:47.613Z,84.75
2022-08-05T09:33:39.902Z,85.15
2022-08-05T09:34:39.951Z,84.95
2022-08-05T09:35:40.029Z,84.19
2022-08-05T09:36:54.014Z,84.59
2022-08-05T09:38:18.452Z,85.53
2022-08-05T09:38:40.294Z,85.43
2022-08-05T09:39:45.136Z,86.18
2022-08-05T09:40:40.406Z,85.68
2022-08-05T09:41:40.519Z,85.27
2022-08-05T09:42:40.566Z,84.27
2022-08-05T09:43:42.180Z,84.17
2022-08-05T09:44:40.748Z,84.57
2022-08-05T09:46:06.648Z,84.07
2022-08-05T09:46:51.650Z,84.03
2022-08-05T09:47:54.966Z,83.93
2022-08-05T09:48:41.160Z,84.37
2022-08-05T09:50:00.598Z,85.17
2022-08-05T09:50:44.469Z,84.87
2022-08-05T09:51:41.326Z,85.11
2022-08-05T09:52:45.127Z,85.01
2022-08-05T09:53:54.045Z,85.11
2022-08-05T09:54:41.592Z,85.05
2022-08-05T09:55:58.716Z,85.55
2022-08-05T09:56:41.763Z,85.25
2022-08-05T09:57:43.268Z,85.25
2022-08-05T09:58:42.407Z,85.25
2022-08-05T09:59:42.000Z,85.05
2022-08-05T10:00:42.065Z,85.35
2022-08-05T10:01:45.885Z,85.69
2022-08-05T10:02:42.254Z,86.19
2022-08-05T10:03:58.473Z,86.04
2022-08-05T10:04:42.386Z,86.24
2022-08-05T10:05:42.489Z,86.44
2022-08-05T10:06:49.797Z,86.04
2022-08-05T10:08:10.680Z,86.24
2022-08-05T10:08:42.763Z,86.58
2022-08-05T10:09:44.926Z,86.58
2022-08-05T10:10:42.893Z,86.78
2022-08-05T10:11:42.974Z,86.28
2022-08-05T10:12:50.015Z,86.48
2022-08-05T10:13:45.755Z,86.28
2022-08-05T10:14:43.196Z,86.28
2022-08-05T10:15:43.291Z,85.97
2022-08-05T10:16:53.100Z,85.68
2022-08-05T10:17:47.435Z,85.47
2022-08-05T10:18:43.537Z,85.97
2022-08-05T10:20:03.577Z,85.78
2022-08-05T10:20:44.162Z,85.78
2022-08-05T10:21:43.769Z,85.97
2022-08-05T10:22:50.824Z,86.28
2022-08-05T10:23:59.345Z,86.22
2022-08-05T10:24:44.012Z,86.12
2022-08-05T10:25:44.106Z,86.82
2022-08-05T10:26:51.169Z,86.38
2022-08-05T10:28:16.706Z,86.48
2022-08-05T10:28:44.935Z,86.28
2022-08-05T10:30:06.867Z,86.42
2022-08-05T10:32:53.842Z,86.12
2022-08-05T10:33:03.969Z,86.92
2022-08-05T10:33:14.485Z,87.26
2022-08-05T10:34:09.395Z,87.06
2022-08-05T10:35:09.384Z,87.66
2022-08-05T10:36:09.455Z,87.57
2022-08-05T10:37:09.505Z,87.96
2022-08-05T10:38:11.895Z,87.57
2022-08-05T10:39:11.812Z,87.26
2022-08-05T10:40:18.094Z,86.96
2022-08-05T10:41:09.851Z,86.56
2022-08-05T10:42:11.314Z,86.76
2022-08-05T10:43:12.411Z,87.06
2022-08-05T10:44:10.201Z,87.37
2022-08-05T10:45:23.445Z,87.51
2022-08-05T10:46:10.537Z,87.51
2022-08-05T10:47:10.318Z,87.91
2022-08-05T10:48:31.422Z,87.71
2022-08-05T10:49:16.461Z,87.30
2022-08-05T10:50:31.980Z,87.10
2022-08-05T10:51:21.397Z,87.21
2022-08-05T10:52:10.741Z,86.80
2022-08-05T10:53:10.782Z,87.41
2022-08-05T10:54:28.570Z,86.40
2022-08-05T10:55:10.928Z,86.40
2022-08-05T10:56:21.272Z,86.40
2022-08-05T10:57:11.105Z,86.20
2022-08-05T10:58:11.627Z,86.16
2022-08-05T10:59:12.603Z,85.86
2022-08-05T11:00:12.154Z,85.75
2022-08-05T11:01:11.558Z,85.90
2022-08-05T11:02:14.412Z,85.90
2022-08-05T11:03:25.532Z,85.70
2022-08-05T11:04:11.695Z,85.90
2022-08-05T11:05:11.740Z,85.90
2022-08-05T11:06:15.430Z,85.70
2022-08-05T11:07:11.895Z,86.10
2022-08-05T11:08:33.656Z,86.20
2022-08-05T11:09:13.069Z,86.00
2022-08-05T11:10:12.109Z,85.90
2022-08-05T11:11:16.498Z,85.80
2022-08-05T11:12:12.262Z,84.99
2022-08-05T11:13:12.342Z,84.95
2022-08-05T11:14:12.422Z,84.29
2022-08-05T11:15:20.194Z,84.80
2022-08-05T11:16:12.560Z,84.19
2022-08-05T11:18:07.367Z,84.89
2022-08-05T11:18:14.508Z,84.09
2022-08-05T11:20:10.193Z,84.39
2022-08-05T11:20:18.328Z,84.49
2022-08-05T11:21:12.938Z,84.05
2022-08-05T11:22:13.026Z,84.15
2022-08-05T11:23:13.136Z,84.35
2022-08-05T11:24:29.831Z,83.75
2022-08-05T11:26:03.200Z,83.61
2022-08-05T11:26:13.384Z,83.81
2022-08-05T11:27:13.483Z,83.51
2022-08-05T11:28:17.299Z,83.21
2022-08-05T11:29:14.453Z,82.31
2022-08-05T11:30:13.717Z,81.56
2022-08-05T11:31:51.825Z,81.96
2022-08-05T11:32:13.852Z,81.96
2022-08-05T11:33:13.926Z,81.82
2022-08-05T11:34:15.077Z,81.42
2022-08-05T11:35:15.515Z,80.88
2022-08-05T11:36:14.152Z,80.12
2022-08-05T11:38:30.350Z,80.18
2022-08-05T11:38:45.949Z,80.08
2022-08-05T11:39:14.479Z,79.88
2022-08-05T11:40:14.466Z,79.28
2022-08-05T11:41:56.199Z,78.58
2022-08-05T11:42:18.425Z,79.08
2022-08-05T11:43:14.691Z,78.88
2022-08-05T11:44:40.390Z,78.38
2022-08-05T11:45:26.862Z,78.48
2022-08-05T11:46:32.252Z,77.84
2022-08-05T11:47:18.642Z,76.94
2022-08-05T11:48:15.099Z,76.54
2022-08-05T11:49:15.181Z,76.40
2022-08-05T11:50:15.242Z,76.20
2022-08-05T11:51:44.186Z,75.90
2022-08-05T11:52:15.375Z,75.46
2022-08-05T11:53:15.548Z,75.06
2022-08-05T11:54:15.590Z,74.66
2022-08-05T11:55:15.638Z,74.50
2022-08-05T11:56:15.689Z,75.20
2022-08-05T11:57:25.089Z,75.60
2022-08-05T11:58:17.455Z,75.37
2022-08-05T11:59:15.958Z,75.37
2022-08-05T12:00:16.023Z,75.06
2022-08-05T12:01:19.179Z,74.87
2022-08-05T12:02:29.781Z,74.93
2022-08-05T12:03:16.385Z,75.29
2022-08-05T12:04:16.502Z,75.46
2022-08-05T12:05:18.044Z,74.62
2022-08-05T12:06:16.550Z,72.62
2022-08-05T12:07:16.712Z,71.92
2022-08-05T12:08:17.908Z,71.12
2022-08-05T12:09:19.956Z,71.03
2022-08-05T12:10:16.825Z,71.33
2022-08-05T12:11:17.242Z,72.02
2022-08-05T12:12:16.983Z,72.06
2022-08-05T12:13:27.746Z,72.26
2022-08-05T12:14:17.247Z,72.76
2022-08-05T12:15:17.218Z,72.39
2022-08-05T12:16:17.289Z,72.99
2022-08-05T12:18:02.498Z,73.22
2022-08-05T12:18:17.595Z,73.43
2022-08-05T12:20:27.311Z,72.92
2022-08-05T12:20:38.094Z,73.43
2022-08-05T12:21:17.771Z,72.69
2022-08-05T12:22:19.907Z,73.39
2022-08-05T12:23:17.843Z,73.25
2022-08-05T12:24:17.916Z,72.56
2022-08-05T12:25:17.988Z,71.22
2022-08-05T12:26:18.084Z,70.29
2022-08-05T12:27:32.566Z,70.36
2022-08-05T12:28:18.231Z,69.76
2022-08-05T12:29:22.859Z,67.53
2022-08-05T12:30:18.364Z,68.16
2022-08-05T12:31:28.066Z,67.57
2022-08-05T12:32:18.512Z,67.16
2022-08-05T12:33:27.705Z,67.33
2022-08-05T12:34:20.685Z,67.00
2022-08-05T12:35:21.659Z,66.50
2022-08-05T12:36:18.825Z,65.57
2022-08-05T12:37:21.750Z,65.67
2022-08-05T12:38:18.941Z,64.90
2022-08-05T12:39:19.210Z,66.40
2022-08-05T12:40:26.539Z,65.41
2022-08-05T12:41:19.215Z,64.71
2022-08-05T12:42:19.298Z,65.94
2022-08-05T12:43:20.654Z,65.91
2022-08-05T12:44:28.620Z,66.30
2022-08-05T12:45:19.529Z,64.87
2022-08-05T12:46:23.594Z,64.54
2022-08-05T12:47:19.703Z,63.85
2022-08-05T12:48:32.580Z,63.15
2022-08-05T12:49:19.872Z,63.12
2022-08-05T12:50:20.004Z,63.22
2022-08-05T12:52:10.028Z,63.49
2022-08-05T12:52:25.242Z,61.20
2022-08-05T12:53:20.180Z,61.50
2022-08-05T12:54:23.369Z,61.13
2022-08-05T12:55:23.005Z,60.63
2022-08-05T12:56:35.419Z,60.93